Decoded Metar for MMMD (MERIDA in MEXICO) (IATA:MID) | Meteo·Mobile Aviation Weather
aviador You're here:

MMMD Decoded Metar

MERIDA in MEXICO
Report Time2018-11-19 21:47:00
UTC Time2018-11-19 22:30:56
Flight Rules vfr VFR
Wind120° at 10 kt
W.Decomp.*RWY 10: 9.5 kt HW 3.1 kt RCW
RWY 18: 4.7 kt HW 8.8 kt LCW
W.Rank120° ranks 3
Current wind is above 120° avg. (9.3)
Visibility9999 m
Phenomena:N/A
Clouds:Few 020 Hf
Expected CloudBase > 3,200 ft AGL from Temp-Dew spread
CeilingNone
Temp29°C (ISA +14)
Dew Point21°C (62% RH)
Heat Index31.3°C
QNH1013 hPa
Density Alt1,975 ft
Elevation33 ft
Report Wrong Elevation
Raw Report
METAR MMMD 192147Z 12010KT 7SM FEW020 29/21 A2992 RMK 8/100=

Extra information for MMMD:More info

Metar Taf Metar & Taf Last 4 Metars F.Rules Stats Wind Profile Meteogram Temp Stats Airport Information Weather charts Add Link Nearby VenuesMetar ALERT Operation Metar Decoded Social comments